Terminal Aerodrome Forecast
Issued by NWS

Home | Current Version | Previous Version | Text Only | Print | Product List | Glossary Off
Versions: 1 2 3 4 5 6 7 8 9 10 11 12 13 14 15 16 17 18 19 20 21 22 23 24 25 26 27 28 29 30 31 32 33 34 35 36 37 38 39 40 41 42 43 44 45 46 47 48 49 50

014
FTUS43 KLOT 190532
TAFGYY
TAF
KGYY 190532Z 1906/2006 22006KT 3SM BR FEW009 BKN250
     FM191500 16008KT 6SM BR SCT015 BKN100
     FM192000 11008KT P6SM SCT035 OVC060
     FM200100 09006KT 3SM -RA SCT010 OVC025
     FM200300 08007KT 2SM -RA BKN007 OVC015=

USA.gov is the U.S. government's official web portal to all federal, state and local government web resources and services.